KZU79 KSAN-EDDF
Flight info
| Callsign | KZU79 |
|---|---|
| Flight time | N/A |
| Altitude | 35000 |
| Route | ZZOOO4 MTBAL DCT EED J236 TBC DCT DVC DCT COUGH DCT KUTCH DCT FSD DCT RWF DCT MAYER DCT YUGUP DCT SNARG DCT KP12M DCT YXZ DCT BAFAL DCT ULDON/N0486F370 DCT EBKOT DCT VIPKA DCT YWK DCT DORYY/M083F370 DCT 58N050W 58N040W 58N030W 58N020W DCT SUNOT/N0472F370 DCT KESIX DCT MIMKU DCT BELOX/N0467F390 L603 LAMSO DCT EVELI DCT SOGPO DCT DIXAT T149 LIPMI T911 COL/N0435F230 T911 ROLIS ROLIS5A |
| Aircraft | A333/H-SDE3GHIJ2J3J5M1RVWXY/LB2D1 |
Departure
| Time | 2026-04-23 05:35 |
|---|---|
| Airport | San Diego International Airport (KSAN) |
Arrival
| Time | N/A |
|---|---|
| Airport | Frankfurt Main Airport (EDDF) |
| Time | Latitude | Longitude | Altitude | Speed | Heading |
|---|---|---|---|---|---|
| 2026-04-23 05:19 | 32.73397 | -117.18313 | 25 ft | 0 kts | 107° |
| 2026-04-23 05:29 | 32.73403 | -117.18339 | 26 ft | 4 kts | 106° |
| 2026-04-23 05:29 | 32.73410 | -117.18366 | 25 ft | 4 kts | 118° |
| 2026-04-23 05:29 | 32.73427 | -117.18383 | 28 ft | 4 kts | 177° |
| 2026-04-23 05:29 | 32.73450 | -117.18380 | 29 ft | 1 kts | 193° |
| 2026-04-23 05:30 | 32.73451 | -117.18380 | 25 ft | 0 kts | 193° |
| 2026-04-23 05:32 | 32.73447 | -117.18381 | 29 ft | 3 kts | 193° |
| 2026-04-23 05:32 | 32.73397 | -117.18395 | 25 ft | 11 kts | 193° |
| 2026-04-23 05:32 | 32.73312 | -117.18312 | 27 ft | 17 kts | 108° |
| 2026-04-23 05:33 | 32.73284 | -117.18211 | 24 ft | 21 kts | 107° |
| 2026-04-23 05:33 | 32.73243 | -117.18035 | 27 ft | 24 kts | 104° |
| 2026-04-23 05:33 | 32.73198 | -117.17842 | 25 ft | 21 kts | 107° |
| 2026-04-23 05:33 | 32.73161 | -117.17681 | 28 ft | 20 kts | 105° |
| 2026-04-23 05:34 | 32.73092 | -117.17548 | 26 ft | 19 kts | 146° |
| 2026-04-23 05:34 | 32.73018 | -117.17543 | 29 ft | 5 kts | 240° |
| 2026-04-23 05:34 | 32.73020 | -117.17582 | 28 ft | 7 kts | 286° |
| 2026-04-23 05:34 | 32.73072 | -117.17789 | 24 ft | 55 kts | 286° |
| 2026-04-23 05:35 | 32.73236 | -117.18468 | 28 ft | 115 kts | 286° |
| 2026-04-23 05:35 | 32.73509 | -117.19595 | 30 ft | 169 kts | 286° |
| 2026-04-23 05:35 | 32.73839 | -117.21023 | 533 ft | 185 kts | 284° |
| 2026-04-23 05:35 | 32.74155 | -117.22548 | 1335 ft | 189 kts | 285° |
| 2026-04-23 05:36 | 32.74518 | -117.24025 | 2256 ft | 185 kts | 288° |
| 2026-04-23 05:36 | 32.74898 | -117.25509 | 2721 ft | 191 kts | 288° |
| 2026-04-23 05:36 | 32.75295 | -117.27077 | 2977 ft | 207 kts | 288° |
| 2026-04-23 05:36 | 32.75723 | -117.28804 | 3144 ft | 228 kts | 287° |
| 2026-04-23 05:37 | 32.76177 | -117.30665 | 3357 ft | 246 kts | 287° |
| 2026-04-23 05:37 | 32.76456 | -117.32706 | 3786 ft | 255 kts | 269° |
| 2026-04-23 05:37 | 32.76010 | -117.34747 | 4338 ft | 260 kts | 242° |
| 2026-04-23 05:37 | 32.74757 | -117.36301 | 4920 ft | 266 kts | 212° |
| 2026-04-23 05:38 | 32.72994 | -117.36916 | 5462 ft | 273 kts | 181° |
| 2026-04-23 05:38 | 32.71149 | -117.36363 | 6023 ft | 279 kts | 149° |
| 2026-04-23 05:38 | 32.69710 | -117.34817 | 6621 ft | 282 kts | 130° |
| 2026-04-23 05:38 | 32.68498 | -117.32973 | 7225 ft | 285 kts | 127° |
| 2026-04-23 05:39 | 32.67309 | -117.31081 | 7829 ft | 286 kts | 127° |
| 2026-04-23 05:39 | 32.66103 | -117.29179 | 8420 ft | 290 kts | 127° |
| 2026-04-23 05:39 | 32.64877 | -117.27268 | 8989 ft | 293 kts | 128° |
| 2026-04-23 05:39 | 32.63679 | -117.25334 | 9538 ft | 296 kts | 121° |
| 2026-04-23 05:40 | 32.62972 | -117.23022 | 9970 ft | 304 kts | 100° |
| 2026-04-23 05:40 | 32.62683 | -117.20483 | 10224 ft | 319 kts | 95° |
| 2026-04-23 05:40 | 32.62466 | -117.17790 | 10416 ft | 335 kts | 95° |
| 2026-04-23 05:40 | 32.62242 | -117.14975 | 10612 ft | 351 kts | 95° |
| 2026-04-23 05:41 | 32.62038 | -117.12020 | 10800 ft | 366 kts | 90° |
| 2026-04-23 05:41 | 32.62376 | -117.08984 | 10967 ft | 378 kts | 72° |
| 2026-04-23 05:41 | 32.63245 | -117.06034 | 11157 ft | 390 kts | 66° |
| 2026-04-23 05:41 | 32.64254 | -117.03000 | 11450 ft | 399 kts | 66° |
| 2026-04-23 05:42 | 32.65287 | -116.99913 | 11865 ft | 405 kts | 66° |
| 2026-04-23 05:42 | 32.66269 | -116.96742 | 12277 ft | 413 kts | 72° |
| 2026-04-23 05:42 | 32.66710 | -116.93354 | 12722 ft | 419 kts | 85° |
| 2026-04-23 05:42 | 32.66834 | -116.89874 | 13191 ft | 423 kts | 88° |
| 2026-04-23 05:43 | 32.66904 | -116.86365 | 13663 ft | 426 kts | 88° |
| 2026-04-23 05:43 | 32.66980 | -116.82845 | 14116 ft | 429 kts | 86° |
| 2026-04-23 05:43 | 32.67430 | -116.79388 | 14556 ft | 430 kts | 70° |
| 2026-04-23 05:43 | 32.68736 | -116.76224 | 14978 ft | 427 kts | 50° |
| 2026-04-23 05:44 | 32.70816 | -116.73762 | 15401 ft | 421 kts | 30° |
| 2026-04-23 05:44 | 32.73383 | -116.72142 | 15816 ft | 417 kts | 18° |
| 2026-04-23 05:44 | 32.76079 | -116.70831 | 16261 ft | 419 kts | 17° |
| 2026-04-23 05:44 | 32.78809 | -116.69543 | 16682 ft | 423 kts | 17° |
| 2026-04-23 05:45 | 32.81553 | -116.68234 | 17083 ft | 426 kts | 17° |
| 2026-04-23 05:45 | 32.84311 | -116.66904 | 17475 ft | 429 kts | 17° |
| 2026-04-23 05:45 | 32.87052 | -116.65572 | 17878 ft | 432 kts | 17° |
| 2026-04-23 05:45 | 32.89858 | -116.64202 | 18240 ft | 435 kts | 17° |
| 2026-04-23 05:46 | 32.92676 | -116.62822 | 18618 ft | 438 kts | 17° |
| 2026-04-23 05:46 | 32.95512 | -116.61431 | 19018 ft | 441 kts | 17° |